createdAt,value
2023-04-02T00:02:20.784Z,99183.00
2023-04-02T00:05:16.638Z,99187.47
2023-04-02T00:07:44.731Z,99182.00
2023-04-02T00:10:33.848Z,99188.09
2023-04-02T00:13:01.978Z,99181.75
2023-04-02T00:15:30.034Z,99191.00
2023-04-02T00:17:57.723Z,99196.44
2023-04-02T00:20:26.651Z,99202.03
2023-04-02T00:22:55.150Z,99200.28
2023-04-02T00:25:21.896Z,99204.59
2023-04-02T00:27:48.643Z,99203.78
2023-04-02T00:30:16.277Z,99208.34
2023-04-02T00:32:43.220Z,99205.28
2023-04-02T00:35:19.102Z,99204.28
2023-04-02T00:37:46.166Z,99211.78
2023-04-02T00:40:29.504Z,99209.88
2023-04-02T00:42:58.723Z,99212.84
2023-04-02T00:45:29.144Z,99212.50
2023-04-02T00:48:00.779Z,99217.94
2023-04-02T00:50:34.513Z,99218.94
2023-04-02T00:53:05.080Z,99209.78
2023-04-02T00:55:41.697Z,99197.69
2023-04-02T00:58:27.254Z,99215.88
2023-04-02T01:00:54.064Z,99221.03
2023-04-02T01:03:22.837Z,99221.91
2023-04-02T01:06:10.833Z,99218.50
2023-04-02T01:08:52.726Z,99217.94
2023-04-02T01:11:34.325Z,99221.81
2023-04-02T01:14:16.725Z,99223.06
2023-04-02T01:16:54.166Z,99224.34
2023-04-02T01:19:42.483Z,99227.78
2023-04-02T01:22:19.680Z,99234.63
2023-04-02T01:24:46.361Z,99230.91
2023-04-02T01:27:29.560Z,99233.56
2023-04-02T01:29:58.277Z,99234.25
2023-04-02T01:32:27.793Z,99238.75
2023-04-02T01:34:54.748Z,99238.94
2023-04-02T01:37:52.683Z,99240.06
2023-04-02T01:40:26.127Z,99247.41
2023-04-02T01:43:22.443Z,99253.78
2023-04-02T01:45:49.951Z,99247.53
2023-04-02T01:48:19.939Z,99256.91
2023-04-02T01:50:49.831Z,99253.78
2023-04-02T01:53:18.050Z,99263.94
2023-04-02T01:55:48.729Z,99256.28
2023-04-02T01:58:19.947Z,99264.78
2023-04-02T02:00:51.423Z,99263.81
2023-04-02T02:03:19.153Z,99265.75
2023-04-02T02:05:46.622Z,99273.41
2023-04-02T02:08:31.012Z,99271.63
2023-04-02T02:10:58.721Z,99287.31
2023-04-02T02:13:25.473Z,99282.94
2023-04-02T02:15:52.281Z,99287.03
2023-04-02T02:18:23.262Z,99296.03
2023-04-02T02:20:51.664Z,99298.16
2023-04-02T02:23:19.159Z,99286.19
2023-04-02T02:25:46.492Z,99300.03
2023-04-02T02:28:23.653Z,99298.63
2023-04-02T02:30:58.780Z,99298.31
2023-04-02T02:33:32.836Z,99297.22
2023-04-02T02:36:06.150Z,99301.75
2023-04-02T02:38:54.858Z,99305.13
2023-04-02T02:41:27.719Z,99304.03
2023-04-02T02:44:27.382Z,99300.59
2023-04-02T02:47:09.396Z,99307.09
2023-04-02T02:50:11.387Z,99311.19
2023-04-02T02:52:38.857Z,99318.28
2023-04-02T02:55:07.168Z,99319.81
2023-04-02T02:57:37.373Z,99322.66
2023-04-02T03:00:06.811Z,99320.22
2023-04-02T03:02:36.514Z,99326.34
2023-04-02T03:05:05.277Z,99323.66
2023-04-02T03:07:31.999Z,99328.59
2023-04-02T03:10:07.210Z,99327.63
2023-04-02T03:12:53.915Z,99341.03
2023-04-02T03:15:35.151Z,99334.66
2023-04-02T03:18:15.028Z,99337.63
2023-04-02T03:20:46.901Z,99346.53
2023-04-02T03:23:20.541Z,99351.91
2023-04-02T03:26:12.860Z,99357.72
2023-04-02T03:28:42.787Z,99365.19
2023-04-02T03:31:15.965Z,99361.94
2023-04-02T03:33:46.270Z,99372.41
2023-04-02T03:36:34.825Z,99365.06
2023-04-02T03:39:16.045Z,99368.84
2023-04-02T03:41:51.893Z,99375.09
2023-04-02T03:44:29.086Z,99386.50
2023-04-02T03:46:58.535Z,99389.63
2023-04-02T03:49:36.751Z,99396.16
2023-04-02T03:52:09.201Z,99397.53
2023-04-02T03:54:36.471Z,99387.06
2023-04-02T03:57:04.254Z,99394.13
2023-04-02T03:59:45.291Z,99395.53
2023-04-02T04:02:27.689Z,99401.19
2023-04-02T04:04:55.759Z,99394.13
2023-04-02T04:07:31.706Z,99405.75
2023-04-02T04:09:59.282Z,99408.53
2023-04-02T04:12:30.708Z,99419.19
2023-04-02T04:15:09.063Z,99421.88
2023-04-02T04:17:54.058Z,99421.06
2023-04-02T04:20:24.775Z,99426.88
2023-04-02T04:22:55.804Z,99433.88
2023-04-02T04:25:30.457Z,99439.72
2023-04-02T04:28:24.394Z,99438.44
2023-04-02T04:31:04.459Z,99440.13
2023-04-02T04:33:39.950Z,99442.22
2023-04-02T04:36:19.268Z,99426.25
2023-04-02T04:38:49.225Z,99441.50
2023-04-02T04:41:24.807Z,99448.03
2023-04-02T04:44:16.203Z,99442.25
2023-04-02T04:46:47.130Z,99450.69
2023-04-02T04:49:24.308Z,99463.25
2023-04-02T04:51:57.532Z,99471.25
2023-04-02T04:54:26.824Z,99474.59
2023-04-02T04:56:59.918Z,99470.94
2023-04-02T04:59:27.453Z,99471.75
2023-04-02T05:01:57.351Z,99479.09
2023-04-02T05:04:41.094Z,99488.63
2023-04-02T05:07:17.627Z,99489.22
2023-04-02T05:10:03.772Z,99491.50
2023-04-02T05:12:43.636Z,99496.69
2023-04-02T05:15:17.371Z,99501.13
2023-04-02T05:17:54.052Z,99506.63
2023-04-02T05:20:41.844Z,99513.72
2023-04-02T05:23:21.977Z,99509.34
2023-04-02T05:26:11.695Z,99506.19
2023-04-02T05:28:42.613Z,99513.16
2023-04-02T05:31:20.535Z,99516.97
2023-04-02T05:33:48.576Z,99520.75
2023-04-02T05:36:26.455Z,99528.59
2023-04-02T05:38:53.982Z,99533.00
2023-04-02T05:41:36.580Z,99526.31
2023-04-02T05:44:07.379Z,99528.31
2023-04-02T05:46:43.918Z,99540.38
2023-04-02T05:49:21.435Z,99537.56
2023-04-02T05:51:50.885Z,99538.06
2023-04-02T05:54:26.332Z,99548.06
2023-04-02T05:57:17.523Z,99553.84
2023-04-02T05:59:48.035Z,99545.22
2023-04-02T06:02:23.042Z,99549.72
2023-04-02T06:05:13.038Z,99562.00
2023-04-02T06:07:48.180Z,99560.44
2023-04-02T06:10:24.637Z,99569.41
2023-04-02T06:13:04.941Z,99577.66
2023-04-02T06:15:33.126Z,99579.06
2023-04-02T06:18:06.336Z,99574.28
2023-04-02T06:20:33.206Z,99583.00
2023-04-02T06:23:05.100Z,99579.34
2023-04-02T06:25:36.353Z,99582.75
2023-04-02T06:28:05.654Z,99591.78
2023-04-02T06:30:35.086Z,99601.22
2023-04-02T06:33:01.914Z,99595.41
2023-04-02T06:35:28.481Z,99603.97
2023-04-02T06:37:57.417Z,99601.19
2023-04-02T06:40:44.734Z,99612.75
2023-04-02T06:43:22.334Z,99613.09
2023-04-02T06:45:52.140Z,99620.19
2023-04-02T06:48:20.901Z,99622.53
2023-04-02T06:50:51.487Z,99628.00
2023-04-02T06:53:32.107Z,99631.03
2023-04-02T06:56:07.786Z,99637.75
2023-04-02T06:58:34.347Z,99635.34
2023-04-02T07:01:00.925Z,99636.56
2023-04-02T07:03:29.551Z,99640.44
2023-04-02T07:05:57.108Z,99640.19
2023-04-02T07:08:23.985Z,99643.41
2023-04-02T07:10:50.745Z,99642.34
2023-04-02T07:13:20.322Z,99646.16
2023-04-02T07:15:56.585Z,99654.66
2023-04-02T07:18:28.155Z,99650.25
2023-04-02T07:20:55.280Z,99649.66
2023-04-02T07:23:22.039Z,99655.38
2023-04-02T07:25:49.678Z,99668.69
2023-04-02T07:28:16.833Z,99670.03
2023-04-02T07:30:44.110Z,99674.50
2023-04-02T07:33:14.178Z,99680.47
2023-04-02T07:35:41.204Z,99671.59
2023-04-02T07:38:07.824Z,99687.78
2023-04-02T07:40:34.699Z,99685.09
2023-04-02T07:43:01.494Z,99696.09
2023-04-02T07:45:28.061Z,99695.88
2023-04-02T07:47:54.842Z,99699.75
2023-04-02T07:50:21.597Z,99711.06
2023-04-02T07:52:48.367Z,99703.53
2023-04-02T07:55:16.212Z,99703.41
2023-04-02T07:57:54.678Z,99706.06
2023-04-02T08:00:22.608Z,99702.19
2023-04-02T08:02:49.804Z,99708.63
2023-04-02T08:05:16.977Z,99723.00
2023-04-02T08:07:43.660Z,99720.69
2023-04-02T08:10:11.710Z,99733.22
2023-04-02T08:12:38.637Z,99738.97
2023-04-02T08:15:08.513Z,99737.00
2023-04-02T08:17:35.248Z,99733.34
2023-04-02T08:20:02.058Z,99740.66
2023-04-02T08:22:29.626Z,99742.59
2023-04-02T08:24:56.892Z,99740.63
2023-04-02T08:27:24.936Z,99743.31
2023-04-02T08:29:51.714Z,99738.47
2023-04-02T08:32:18.517Z,99747.97
2023-04-02T08:34:45.412Z,99760.75
2023-04-02T08:37:12.632Z,99774.63
2023-04-02T08:39:39.399Z,99779.13
2023-04-02T08:42:19.228Z,99794.94
2023-04-02T08:45:24.382Z,99783.03
2023-04-02T08:47:55.373Z,99788.25
2023-04-02T08:50:31.003Z,99798.00
2023-04-02T08:52:59.351Z,99795.41
2023-04-02T08:55:38.004Z,99800.41
2023-04-02T08:58:25.492Z,99806.16
2023-04-02T09:00:54.899Z,99800.56
2023-04-02T09:03:31.594Z,99799.69
2023-04-02T09:05:59.841Z,99807.00
2023-04-02T09:08:27.300Z,99811.75
2023-04-02T09:11:11.833Z,99819.53
2023-04-02T09:13:43.072Z,99809.91
2023-04-02T09:16:18.488Z,99814.53
2023-04-02T09:18:45.628Z,99817.09
2023-04-02T09:21:21.333Z,99813.34
2023-04-02T09:23:49.697Z,99821.09
2023-04-02T09:26:28.962Z,99821.72
2023-04-02T09:29:14.068Z,99828.88
2023-04-02T09:31:45.304Z,99830.72
2023-04-02T09:34:29.732Z,99824.50
2023-04-02T09:36:57.038Z,99833.38
2023-04-02T09:39:26.422Z,99830.34
2023-04-02T09:42:04.994Z,99836.66
2023-04-02T09:44:33.622Z,99829.63
2023-04-02T09:47:05.953Z,99832.41
2023-04-02T09:49:34.983Z,99836.84
2023-04-02T09:52:28.064Z,99834.75
2023-04-02T09:55:18.738Z,99840.59
2023-04-02T09:57:46.707Z,99854.09
2023-04-02T10:00:30.442Z,99847.28
2023-04-02T10:03:07.172Z,99858.00
2023-04-02T10:05:40.126Z,99860.78
2023-04-02T10:08:14.793Z,99864.72
2023-04-02T10:10:44.694Z,99873.63
2023-04-02T10:13:19.291Z,99870.56
2023-04-02T10:16:00.500Z,99874.97
2023-04-02T10:18:47.993Z,99881.78
2023-04-02T10:21:21.824Z,99882.88
2023-04-02T10:23:48.418Z,99897.88
2023-04-02T10:26:39.476Z,99891.75
2023-04-02T10:29:24.015Z,99890.69
2023-04-02T10:32:15.886Z,99888.09
2023-04-02T10:34:51.152Z,99889.06
2023-04-02T10:37:42.663Z,99901.63
2023-04-02T10:40:12.790Z,99897.31
2023-04-02T10:42:55.100Z,99906.50
2023-04-02T10:45:37.007Z,99908.78
2023-04-02T10:48:33.056Z,99916.00
2023-04-02T10:51:04.731Z,99920.59
2023-04-02T10:53:59.216Z,99928.91
2023-04-02T10:56:28.569Z,99926.69
2023-04-02T10:59:01.364Z,99937.19
2023-04-02T11:01:30.473Z,99936.72
2023-04-02T11:04:14.373Z,99945.00
2023-04-02T11:06:47.507Z,99958.06
2023-04-02T11:09:20.441Z,99955.59
2023-04-02T11:11:49.210Z,99951.06
2023-04-02T11:14:21.200Z,99962.03
2023-04-02T11:16:51.552Z,99958.09
2023-04-02T11:19:18.037Z,99958.09
2023-04-02T11:21:57.772Z,99959.69
2023-04-02T11:24:32.752Z,99967.22
2023-04-02T11:27:04.774Z,99977.47
2023-04-02T11:29:32.638Z,99978.16
2023-04-02T11:32:20.715Z,99986.34
2023-04-02T11:34:53.713Z,99990.59
2023-04-02T11:37:38.589Z,99992.59
2023-04-02T11:40:11.185Z,99998.09
2023-04-02T11:42:40.517Z,99993.06
2023-04-02T11:45:23.100Z,99995.75
2023-04-02T11:48:15.681Z,99997.31
2023-04-02T11:50:46.231Z,100008.44
2023-04-02T11:53:13.112Z,100010.78
2023-04-02T11:55:41.361Z,100015.59
2023-04-02T11:58:27.527Z,100014.16
2023-04-02T12:01:18.518Z,100017.91
2023-04-02T12:04:09.946Z,100016.22
2023-04-02T12:06:54.974Z,100025.00
2023-04-02T12:09:23.566Z,100025.00
2023-04-02T12:11:52.223Z,100034.63
2023-04-02T12:14:43.575Z,100039.91
2023-04-02T12:17:30.282Z,100033.47
2023-04-02T12:20:08.415Z,100037.84
2023-04-02T12:22:47.631Z,100039.84
2023-04-02T12:25:30.015Z,100042.09
2023-04-02T12:28:09.367Z,100042.25
2023-04-02T12:30:37.797Z,100039.25
2023-04-02T12:33:30.689Z,100038.66
2023-04-02T12:35:59.318Z,100044.63
2023-04-02T12:38:31.218Z,100048.88
2023-04-02T12:41:05.030Z,100050.81
2023-04-02T12:43:34.083Z,100048.00
2023-04-02T12:46:10.311Z,100056.66
2023-04-02T12:48:37.679Z,100054.28
2023-04-02T12:51:05.090Z,100054.00
2023-04-02T12:53:37.235Z,100062.38
2023-04-02T12:56:05.845Z,100071.03
2023-04-02T12:58:37.721Z,100076.13
2023-04-02T13:01:31.933Z,100083.34
2023-04-02T13:04:07.661Z,100088.19
2023-04-02T13:06:37.542Z,100087.56
2023-04-02T13:09:06.663Z,100086.06
2023-04-02T13:11:39.209Z,100093.03
2023-04-02T13:14:17.221Z,100094.13
2023-04-02T13:16:43.723Z,100098.56
2023-04-02T13:19:10.350Z,100102.44
2023-04-02T13:21:36.877Z,100090.44
2023-04-02T13:24:10.630Z,100097.91
2023-04-02T13:26:37.101Z,100104.72
2023-04-02T13:29:13.894Z,100107.81
2023-04-02T13:31:40.557Z,100113.66
2023-04-02T13:34:07.088Z,100104.16
2023-04-02T13:36:33.659Z,100114.28
2023-04-02T13:39:00.776Z,100119.00
2023-04-02T13:41:32.380Z,100113.78
2023-04-02T13:44:01.496Z,100119.75
2023-04-02T13:46:30.287Z,100120.19
2023-04-02T13:48:58.280Z,100116.34
2023-04-02T13:51:35.974Z,100124.44
2023-04-02T13:54:04.263Z,100128.31
2023-04-02T13:56:31.131Z,100130.53
2023-04-02T13:58:57.684Z,100131.31
2023-04-02T14:01:25.355Z,100133.50
2023-04-02T14:03:53.567Z,100141.19
2023-04-02T14:06:39.119Z,100133.28
2023-04-02T14:09:45.665Z,100139.75
2023-04-02T14:12:35.045Z,100154.75
2023-04-02T14:15:11.086Z,100144.84
2023-04-02T14:18:19.206Z,100155.13
2023-04-02T14:21:32.317Z,100158.66
2023-04-02T14:24:01.569Z,100160.34
2023-04-02T14:26:32.533Z,100169.38
2023-04-02T14:29:22.740Z,100183.72
2023-04-02T14:32:01.590Z,100181.56
2023-04-02T14:34:56.509Z,100184.88
2023-04-02T14:37:22.943Z,100178.78
2023-04-02T14:39:57.474Z,100184.59
2023-04-02T14:42:32.771Z,100190.25
2023-04-02T14:45:05.617Z,100180.06
2023-04-02T14:47:43.306Z,100191.75
2023-04-02T14:50:17.315Z,100195.19
2023-04-02T14:52:46.103Z,100198.81
2023-04-02T14:55:35.095Z,100201.81
2023-04-02T14:58:04.651Z,100216.78
2023-04-02T15:00:55.875Z,100211.66
2023-04-02T15:03:29.030Z,100218.34
2023-04-02T15:06:05.417Z,100224.31
2023-04-02T15:08:58.584Z,100219.41
2023-04-02T15:11:43.840Z,100228.34
2023-04-02T15:14:22.554Z,100240.69
2023-04-02T15:16:49.176Z,100243.19
2023-04-02T15:19:17.893Z,100240.34
2023-04-02T15:22:10.517Z,100245.63
2023-04-02T15:25:01.952Z,100255.25
2023-04-02T15:27:37.629Z,100266.06
2023-04-02T15:30:09.262Z,100256.63
2023-04-02T15:32:39.003Z,100253.84
2023-04-02T15:35:05.851Z,100263.69
2023-04-02T15:38:00.906Z,100263.47
2023-04-02T15:40:46.175Z,100265.25
2023-04-02T15:44:12.084Z,100267.25
2023-04-02T15:46:53.544Z,100276.78
2023-04-02T15:49:41.146Z,100289.09
2023-04-02T15:52:22.606Z,100289.78
2023-04-02T15:55:14.531Z,100298.59
2023-04-02T15:57:54.655Z,100287.47
2023-04-02T16:00:46.467Z,100296.63
2023-04-02T16:03:24.347Z,100303.16
2023-04-02T16:06:17.309Z,100309.25
2023-04-02T16:09:06.547Z,100316.53
2023-04-02T16:11:34.469Z,100320.25
2023-04-02T16:14:24.419Z,100321.88
2023-04-02T16:16:54.069Z,100326.59
2023-04-02T16:19:29.606Z,100326.44
2023-04-02T16:22:11.587Z,100331.97
2023-04-02T16:24:38.310Z,100340.84
2023-04-02T16:27:24.808Z,100335.13
2023-04-02T16:30:17.840Z,100336.63
2023-04-02T16:33:04.147Z,100346.25
2023-04-02T16:35:43.932Z,100352.66
2023-04-02T16:38:29.334Z,100357.44
2023-04-02T16:41:15.675Z,100354.88
2023-04-02T16:43:53.601Z,100363.72
2023-04-02T16:47:02.011Z,100356.88
2023-04-02T16:49:54.706Z,100369.53
2023-04-02T16:52:24.596Z,100370.31
2023-04-02T16:55:04.754Z,100377.06
2023-04-02T16:58:05.028Z,100384.25
2023-04-02T17:00:51.953Z,100382.78
2023-04-02T17:03:40.432Z,100384.31
2023-04-02T17:06:14.343Z,100384.31
2023-04-02T17:09:09.686Z,100397.47
2023-04-02T17:11:49.291Z,100396.03
2023-04-02T17:14:29.782Z,100396.44
2023-04-02T17:17:01.446Z,100402.28
2023-04-02T17:19:29.952Z,100410.84
2023-04-02T17:22:00.596Z,100408.09
2023-04-02T17:24:30.420Z,100410.47
2023-04-02T17:27:01.007Z,100410.19
2023-04-02T17:29:42.391Z,100408.56
2023-04-02T17:32:21.674Z,100408.44
2023-04-02T17:34:48.421Z,100412.16
2023-04-02T17:37:22.840Z,100420.97
2023-04-02T17:40:28.698Z,100428.41
2023-04-02T17:43:16.803Z,100425.63
2023-04-02T17:45:46.596Z,100436.22
2023-04-02T17:48:28.319Z,100435.56
2023-04-02T17:51:13.617Z,100436.34
2023-04-02T17:53:49.085Z,100447.69
2023-04-02T17:56:31.195Z,100450.19
2023-04-02T17:59:23.864Z,100449.59
2023-04-02T18:02:18.160Z,100449.19
2023-04-02T18:05:13.132Z,100451.81
2023-04-02T18:07:45.631Z,100450.19
2023-04-02T18:10:22.955Z,100458.09
2023-04-02T18:13:03.725Z,100455.22
2023-04-02T18:15:46.410Z,100452.63
2023-04-02T18:18:19.309Z,100463.59
2023-04-02T18:20:53.791Z,100456.84
2023-04-02T18:23:39.524Z,100462.09
2023-04-02T18:26:36.548Z,100462.09
2023-04-02T18:29:23.498Z,100470.22
2023-04-02T18:32:11.288Z,100469.94
2023-04-02T18:35:16.134Z,100468.09
2023-04-02T18:38:26.866Z,100475.75
2023-04-02T18:41:05.142Z,100484.44
2023-04-02T18:43:37.955Z,100483.47
2023-04-02T18:46:16.915Z,100489.09
2023-04-02T18:48:50.707Z,100495.22
2023-04-02T18:51:25.117Z,100506.59
2023-04-02T18:53:56.794Z,100506.97
2023-04-02T18:56:24.504Z,100497.03
2023-04-02T18:58:57.166Z,100510.22
2023-04-02T19:01:43.883Z,100506.31
2023-04-02T19:04:15.974Z,100510.50
2023-04-02T19:06:44.936Z,100503.81
2023-04-02T19:09:43.105Z,100508.09
2023-04-02T19:12:19.129Z,100519.28
2023-04-02T19:14:50.129Z,100517.66
2023-04-02T19:17:22.418Z,100511.91
2023-04-02T19:19:52.120Z,100508.41
2023-04-02T19:22:49.265Z,100520.72
2023-04-02T19:25:34.171Z,100521.78
2023-04-02T19:28:29.313Z,100525.31
2023-04-02T19:31:05.464Z,100528.91
2023-04-02T19:33:45.110Z,100526.16
2023-04-02T19:36:49.315Z,100529.22
2023-04-02T19:39:52.005Z,100532.16
2023-04-02T19:42:29.058Z,100524.75
2023-04-02T19:44:55.806Z,100532.16
2023-04-02T19:47:24.371Z,100533.81
2023-04-02T19:49:51.149Z,100524.91
2023-04-02T19:52:17.659Z,100524.75
2023-04-02T19:54:44.204Z,100537.13
2023-04-02T19:57:14.963Z,100534.28
2023-04-02T19:59:41.766Z,100530.53
2023-04-02T20:02:10.581Z,100541.34
2023-04-02T20:04:37.288Z,100540.50
2023-04-02T20:07:04.516Z,100540.41
2023-04-02T20:09:31.040Z,100540.50
2023-04-02T20:11:57.605Z,100547.19
2023-04-02T20:14:24.087Z,100541.53
2023-04-02T20:16:50.676Z,100549.38
2023-04-02T20:19:17.314Z,100547.25
2023-04-02T20:21:44.090Z,100549.81
2023-04-02T20:24:10.664Z,100547.75
2023-04-02T20:26:37.410Z,100552.03
2023-04-02T20:29:04.816Z,100561.50
2023-04-02T20:31:31.517Z,100563.50
2023-04-02T20:33:59.086Z,100561.88
2023-04-02T20:36:25.895Z,100567.25
2023-04-02T20:38:52.559Z,100563.50
2023-04-02T20:41:19.573Z,100570.53
2023-04-02T20:43:46.163Z,100569.97
2023-04-02T20:46:12.936Z,100568.19
2023-04-02T20:48:40.182Z,100575.72
2023-04-02T20:51:08.157Z,100573.03
2023-04-02T20:53:35.915Z,100574.09
2023-04-02T20:56:11.638Z,100572.53
2023-04-02T20:58:38.844Z,100576.00
2023-04-02T21:01:13.214Z,100576.66
2023-04-02T21:03:40.140Z,100586.81
2023-04-02T21:06:13.159Z,100586.28
2023-04-02T21:08:39.700Z,100580.19
2023-04-02T21:11:07.057Z,100586.41
2023-04-02T21:13:36.163Z,100593.38
2023-04-02T21:16:05.813Z,100595.59
2023-04-02T21:18:32.523Z,100602.84
2023-04-02T21:21:04.516Z,100602.53
2023-04-02T21:23:31.719Z,100600.25
2023-04-02T21:26:06.052Z,100599.38
2023-04-02T21:28:33.690Z,100599.66
2023-04-02T21:31:13.182Z,100601.09
2023-04-02T21:33:42.109Z,100602.53
2023-04-02T21:36:11.896Z,100609.03
2023-04-02T21:38:52.564Z,100603.78
2023-04-02T21:41:40.711Z,100616.09
2023-04-02T21:44:08.569Z,100613.03
2023-04-02T21:46:38.619Z,100618.78
2023-04-02T21:49:07.849Z,100613.13
2023-04-02T21:51:35.961Z,100620.91
2023-04-02T21:54:04.422Z,100620.56
2023-04-02T21:56:34.385Z,100626.94
2023-04-02T21:59:03.501Z,100623.31
2023-04-02T22:01:32.886Z,100626.25
2023-04-02T22:04:03.264Z,100627.63
2023-04-02T22:06:31.905Z,100637.28
2023-04-02T22:09:00.604Z,100641.06
2023-04-02T22:11:30.557Z,100647.38
2023-04-02T22:13:57.535Z,100647.72
2023-04-02T22:16:29.017Z,100651.75
2023-04-02T22:18:57.410Z,100651.28
2023-04-02T22:21:25.479Z,100651.34
2023-04-02T22:23:52.633Z,100659.97
2023-04-02T22:26:20.742Z,100660.78
2023-04-02T22:28:47.329Z,100651.31
2023-04-02T22:31:16.394Z,100674.13
2023-04-02T22:33:44.340Z,100660.00
2023-04-02T22:36:11.127Z,100665.28
2023-04-02T22:38:38.097Z,100668.03
2023-04-02T22:41:13.043Z,100667.00
2023-04-02T22:43:41.080Z,100669.31
2023-04-02T22:46:09.324Z,100678.13
2023-04-02T22:48:36.346Z,100677.53
2023-04-02T22:51:04.348Z,100675.72
2023-04-02T22:53:31.177Z,100682.88
2023-04-02T22:56:08.712Z,100677.53
2023-04-02T22:58:35.841Z,100676.91
2023-04-02T23:01:07.242Z,100672.25
2023-04-02T23:03:34.049Z,100670.47
2023-04-02T23:06:03.266Z,100674.28
2023-04-02T23:08:29.800Z,100671.28
2023-04-02T23:11:01.314Z,100686.84
2023-04-02T23:13:28.068Z,100691.16
2023-04-02T23:15:54.742Z,100691.06
2023-04-02T23:18:21.429Z,100692.00
2023-04-02T23:20:47.943Z,100690.81
2023-04-02T23:23:14.421Z,100693.97
2023-04-02T23:25:41.349Z,100699.22
2023-04-02T23:28:08.068Z,100688.75
2023-04-02T23:30:34.815Z,100698.44
2023-04-02T23:33:03.478Z,100707.69
2023-04-02T23:35:31.135Z,100695.75
2023-04-02T23:37:57.655Z,100703.28
2023-04-02T23:40:24.205Z,100703.78
2023-04-02T23:42:50.795Z,100702.22
2023-04-02T23:45:17.586Z,100709.28
2023-04-02T23:47:44.133Z,100709.66
2023-04-02T23:50:10.948Z,100707.38
2023-04-02T23:52:37.548Z,100709.53
2023-04-02T23:55:04.654Z,100711.06
2023-04-02T23:57:31.361Z,100707.59
2023-04-02T23:59:57.992Z,100716.44
